This is the latest recevied weather packets stored in our database for station/object ZR6G-15. If no packets are shown the sender has not sent any weather packets the latest 1 day(s).
| Time | Temp. | Humidity | Pressure | Rain* | Wind** | Luminosity | Snow |
|---|---|---|---|---|---|---|---|
| 1778070953 | 13.89° C | 19% | 1005.8 hPa | - | - | - | - |
| 1778068535 | 15° C | 19% | 1005.6 hPa | - | - | - | - |
| 1778067326 | 15° C | 19% | 1005.5 hPa | - | - | - | - |
| 1778066721 | 15.56° C | 18% | 1005.2 hPa | - | - | - | - |
| 1778064907 | 15.56° C | 18% | 1005.6 hPa | - | - | - | - |
| 1778063698 | 15.56° C | 18% | 1005.7 hPa | - | - | - | - |
| 1778062489 | 16.67° C | 18% | 1006 hPa | - | - | - | - |
| 1778061884 | 15.56° C | 18% | 1006.4 hPa | - | - | - | - |
| 1778060070 | 15.56° C | 18% | 1006.9 hPa | - | - | - | - |
| 1778059465 | 15° C | 21% | 1007.3 hPa | - | - | - | - |
| 1778058256 | 15° C | 19% | 1007.9 hPa | - | - | - | - |
| 1778057047 | 13.89° C | 25% | 1008.5 hPa | - | - | - | - |
| 1778056442 | 13.89° C | 21% | 1008.8 hPa | - | - | - | - |
| 1778055233 | 13.89° C | 25% | 1009.4 hPa | - | - | - | - |
| 1778054628 | 11.67° C | 34% | 1010.1 hPa | - | - | - | - |
| 1778052210 | 10° C | 41% | 1011.1 hPa | - | - | - | - |
| 1778050397 | 8.89° C | 42% | 1011.7 hPa | - | - | - | - |
| 1778049792 | 8.89° C | 43% | 1011.9 hPa | - | - | - | - |
| 1778048583 | 8.89° C | 44% | 1011.9 hPa | - | - | - | - |
| 1778047978 | 7.78° C | 44% | 1011.9 hPa | - | - | - | - |
| 1778046769 | 7.78° C | 45% | 1011.7 hPa | - | - | - | - |
| 1778046164 | 7.78° C | 46% | 1012.1 hPa | - | - | - | - |
| 1778044955 | 7.78° C | 46% | 1012 hPa | - | - | - | - |
| 1778044350 | 7.78° C | 47% | 1012.1 hPa | - | - | - | - |
| 1778043746 | 7.78° C | 47% | 1012 hPa | - | - | - | - |
* Rain since midnight (hover to see other rain measurements)
** Current wind speed in m/s (hover to see current wind gust speed)